Time;durP1;ratioP1;P1;durP2;ratioP2;P2;SDS_P1;SDS_P2;PMS_P1;PMS_P2;Temp;Humidity;BMP_temperature;BMP_pressure;BME280_temperature;BME280_humidity;BME280_pressure;Samples;Min_cycle;Max_cycle;Signal;HPM_P1;HPM_P2
2024/04/15 00:02:14;;;;;;;2.63;1.08;;;14.20;51.20;15.90;101350.00;;;;5453321;26;20244;-81
2024/04/15 00:04:40;;;;;;;3.75;0.80;;;14.20;51.30;15.90;101348.00;;;;5444521;26;20240;-81
2024/04/15 00:07:08;;;;;;;2.60;1.00;;;14.10;51.40;15.80;101343.00;;;;5445346;26;20340;-82
2024/04/15 00:09:35;;;;;;;2.30;0.82;;;14.10;51.50;15.80;101345.00;;;;5452269;26;20232;-81
2024/04/15 00:12:07;;;;;;;2.60;0.98;;;14.10;51.80;15.70;101345.00;;;;5450951;26;20274;-81
2024/04/15 00:14:33;;;;;;;1.98;0.77;;;14.00;51.80;15.70;101335.00;;;;5448878;26;20357;-80
2024/04/15 00:17:01;;;;;;;3.33;1.00;;;14.00;51.80;15.70;101331.00;;;;5450412;26;20232;-81
2024/04/15 00:19:29;;;;;;;3.10;0.90;;;14.00;52.00;15.70;101328.00;;;;5448098;26;20292;-79
2024/04/15 00:21:58;;;;;;;1.98;0.95;;;13.90;52.10;15.60;101322.00;;;;5448931;26;20788;-80
2024/04/15 00:24:24;;;;;;;6.10;1.08;;;13.90;52.20;15.60;101316.00;;;;5440481;26;20236;-79
2024/04/15 00:26:52;;;;;;;3.03;0.88;;;13.90;52.30;15.60;101310.00;;;;5450708;26;20365;-78
2024/04/15 00:29:22;;;;;;;4.35;1.42;;;13.80;52.30;15.50;101306.00;;;;5445062;26;20248;-81
2024/04/15 00:31:50;;;;;;;3.83;1.15;;;13.80;52.50;15.50;101301.00;;;;5451068;26;20270;-79
2024/04/15 00:34:16;;;;;;;3.03;0.98;;;13.80;52.50;15.50;101289.00;;;;5451501;26;20329;-81
2024/04/15 00:36:45;;;;;;;4.13;1.00;;;13.70;52.50;15.40;101285.00;;;;5452122;26;20247;-81
2024/04/15 00:39:12;;;;;;;4.35;0.90;;;13.70;52.60;15.40;101282.00;;;;5443767;26;20239;-77
2024/04/15 00:41:40;;;;;;;1.90;0.88;;;13.60;52.70;15.40;101278.00;;;;5447909;26;20241;-82
2024/04/15 00:44:06;;;;;;;1.60;1.17;;;13.60;52.70;15.40;101273.00;;;;5436044;26;20237;-82
2024/04/15 00:46:38;;;;;;;2.17;1.17;;;13.60;52.90;15.30;101269.00;;;;5449732;26;20224;-82
2024/04/15 00:49:05;;;;;;;2.63;1.23;;;13.60;53.00;15.30;101269.00;;;;5436371;26;20746;-81
2024/04/15 00:51:34;;;;;;;3.88;1.30;;;13.50;53.00;15.30;101258.00;;;;5433350;26;20594;-82
2024/04/15 00:54:01;;;;;;;2.15;0.90;;;13.50;53.00;15.30;101256.00;;;;5449729;26;20839;-81
2024/04/15 00:56:30;;;;;;;2.47;0.90;;;13.50;53.10;15.30;101244.00;;;;5436581;26;20241;-82
2024/04/15 00:58:57;;;;;;;2.15;1.10;;;13.50;53.20;15.20;101239.00;;;;5443556;26;20284;-81
2024/04/15 01:01:28;;;;;;;3.05;1.13;;;13.50;53.30;15.20;101244.00;;;;5450495;26;20228;-82
2024/04/15 01:03:56;;;;;;;4.35;1.00;;;13.40;53.40;15.20;101226.00;;;;5450422;26;20332;-82
2024/04/15 01:06:25;;;;;;;3.78;1.38;;;13.50;53.50;15.20;101224.00;;;;5451528;26;20236;-79
2024/04/15 01:08:51;;;;;;;4.07;0.98;;;13.40;53.40;15.20;101229.00;;;;5452068;26;20220;-82
2024/04/15 01:11:20;;;;;;;3.60;0.93;;;13.40;53.50;15.20;101221.00;;;;5449985;26;20774;-81
2024/04/15 01:13:46;;;;;;;2.55;1.02;;;13.40;53.60;15.20;101216.00;;;;5452161;26;20267;-81
2024/04/15 01:16:15;;;;;;;2.85;1.10;;;13.40;53.60;15.20;101216.00;;;;5451450;26;20283;-82
2024/04/15 01:18:41;;;;;;;4.85;1.52;;;13.40;53.80;15.20;101212.00;;;;5445207;26;20570;-80
2024/04/15 01:21:12;;;;;;;3.13;1.08;;;13.40;53.80;15.20;101215.00;;;;5440708;26;20714;-81
2024/04/15 01:23:46;;;;;;;2.13;1.10;;;13.40;53.90;15.20;101217.00;;;;5447850;26;21070;-80
2024/04/15 01:26:14;;;;;;;4.32;1.38;;;13.40;53.80;15.20;101206.00;;;;5447670;26;20283;-80
2024/04/15 01:28:40;;;;;;;3.83;1.00;;;13.40;53.80;15.20;101203.00;;;;5451709;26;20294;-81
2024/04/15 01:31:10;;;;;;;3.90;1.00;;;13.40;53.80;15.20;101206.00;;;;5437967;26;20841;-82
2024/04/15 01:33:36;;;;;;;1.50;1.02;;;13.40;53.80;15.20;101200.00;;;;5442638;26;20683;-81
2024/04/15 01:36:05;;;;;;;6.68;1.40;;;13.40;53.80;15.30;101199.00;;;;5448239;26;20340;-81
2024/04/15 01:38:31;;;;;;;5.13;1.27;;;13.40;53.80;15.30;101189.00;;;;5450056;26;20315;-81
2024/04/15 01:41:02;;;;;;;7.22;1.40;;;13.50;53.90;15.20;101192.00;;;;5447800;26;20240;-80
2024/04/15 01:43:28;;;;;;;3.80;1.30;;;13.50;53.90;15.30;101188.00;;;;5450493;26;20650;-80
2024/04/15 01:45:57;;;;;;;3.25;0.98;;;13.50;53.80;15.30;101183.00;;;;5450618;26;20733;-76
2024/04/15 01:48:23;;;;;;;3.97;0.93;;;13.50;53.80;15.30;101182.00;;;;5449977;26;20373;-79
2024/04/15 01:50:52;;;;;;;3.17;1.08;;;13.50;53.70;15.30;101177.00;;;;5450081;26;20291;-78
2024/04/15 01:53:18;;;;;;;2.63;0.93;;;13.50;53.70;15.30;101174.00;;;;5441463;26;20228;-81
2024/04/15 01:55:47;;;;;;;5.07;0.90;;;13.60;53.80;15.40;101180.00;;;;5450842;26;20232;-81
2024/04/15 01:58:15;;;;;;;2.40;0.70;;;13.60;54.40;15.30;101166.00;;;;5450941;26;20236;-80
2024/04/15 02:00:44;;;;;;;4.30;1.17;;;13.60;53.80;15.40;101165.00;;;;5451475;26;20220;-81
2024/04/15 02:03:10;;;;;;;3.83;0.77;;;13.60;53.90;15.40;101153.00;;;;5450141;26;20304;-81
2024/04/15 02:05:38;;;;;;;4.43;1.00;;;13.60;53.80;15.40;101154.00;;;;5432553;26;20676;-81
2024/04/15 02:08:05;;;;;;;2.78;1.10;;;13.70;53.80;15.40;101156.00;;;;5447033;26;20340;-80
2024/04/15 02:10:34;;;;;;;2.35;1.13;;;13.70;53.80;15.40;101147.00;;;;5450620;26;20236;-80
2024/04/15 02:13:00;;;;;;;2.25;1.35;;;13.70;53.70;15.40;101146.00;;;;5451157;26;20330;-81
2024/04/15 02:15:31;;;;;;;2.65;0.93;;;13.70;53.70;15.30;101136.00;;;;5450337;26;20737;-81
2024/04/15 02:17:57;;;;;;;3.78;1.13;;;13.70;53.80;15.40;101136.00;;;;5450593;26;20284;-81
2024/04/15 02:20:26;;;;;;;3.55;1.20;;;13.70;53.80;15.40;101131.00;;;;5451429;26;20232;-80
2024/04/15 02:22:52;;;;;;;4.82;1.48;;;13.70;53.80;15.40;101121.00;;;;5436414;26;20229;-80
2024/04/15 02:25:20;;;;;;;4.82;1.30;;;13.70;53.70;15.30;101126.00;;;;5446913;26;20270;-80
2024/04/15 02:27:46;;;;;;;5.22;1.30;;;13.70;53.70;15.40;101117.00;;;;5450374;26;20236;-80
2024/04/15 02:30:15;;;;;;;3.83;1.55;;;13.70;53.80;15.30;101117.00;;;;5450484;26;20305;-80
2024/04/15 02:32:44;;;;;;;4.00;1.27;;;13.60;53.70;15.30;101116.00;;;;5449542;26;20232;-80
2024/04/15 02:35:13;;;;;;;3.15;1.67;;;13.60;53.80;15.30;101112.00;;;;5450318;26;20287;-80
2024/04/15 02:37:39;;;;;;;3.25;1.15;;;13.60;53.80;15.30;101109.00;;;;5450104;26;20391;-80
2024/04/15 02:40:09;;;;;;;7.55;2.08;;;13.60;53.80;15.30;101111.00;;;;5451327;26;20282;-80
2024/04/15 02:42:35;;;;;;;9.10;1.55;;;13.60;53.80;15.30;101104.00;;;;5448790;26;20232;-76
2024/04/15 02:45:04;;;;;;;4.47;1.52;;;13.60;53.90;15.40;101112.00;;;;5447323;26;20231;-79
2024/04/15 02:47:30;;;;;;;2.92;1.20;;;13.60;54.00;15.30;101105.00;;;;5450197;26;20705;-79
2024/04/15 02:50:01;;;;;;;4.95;1.25;;;13.60;54.00;15.30;101103.00;;;;5448360;26;20718;-77
2024/04/15 02:52:27;;;;;;;2.42;1.23;;;13.60;54.10;15.40;101101.00;;;;5450987;26;20615;-79
2024/04/15 02:54:56;;;;;;;3.53;1.38;;;13.60;54.10;15.40;101089.00;;;;5447811;26;20310;-79
2024/04/15 02:57:25;;;;;;;4.57;1.52;;;13.60;54.20;15.30;101082.00;;;;5451252;26;20236;-78
2024/04/15 02:59:51;;;;;;;3.25;1.33;;;13.60;54.10;15.40;101093.00;;;;5435255;26;20229;-79
2024/04/15 03:02:19;;;;;;;2.92;1.30;;;13.60;54.10;15.30;101085.00;;;;5418690;26;20233;-79
2024/04/15 03:04:45;;;;;;;4.20;1.20;;;13.60;54.20;15.30;101078.00;;;;5442535;26;20812;-81
2024/04/15 03:07:17;;;;;;;2.72;1.20;;;13.60;54.30;15.30;101077.00;;;;5449603;26;20236;-80
2024/04/15 03:09:44;;;;;;;5.35;1.50;;;13.60;54.30;15.30;101076.00;;;;5449505;26;20224;-80
2024/04/15 03:12:14;;;;;;;4.90;1.45;;;13.60;54.30;15.30;101066.00;;;;5448717;26;20228;-80
2024/04/15 03:14:40;;;;;;;5.13;1.52;;;13.60;54.40;15.30;101059.00;;;;5420622;26;20229;-81
2024/04/15 03:17:08;;;;;;;6.43;1.70;;;13.60;54.40;15.30;101051.00;;;;5417300;26;20347;-79
2024/04/15 03:19:34;;;;;;;7.03;1.70;;;13.60;54.50;15.20;101053.00;;;;5456797;26;20291;-78
2024/04/15 03:22:03;;;;;;;4.47;1.35;;;13.60;54.50;15.30;101051.00;;;;5453919;26;20747;-79
2024/04/15 03:24:32;;;;;;;5.55;1.70;;;13.50;54.50;15.20;101047.00;;;;5453569;26;20243;-79
2024/04/15 03:27:01;;;;;;;4.82;2.00;;;13.50;54.70;15.20;101048.00;;;;5437164;26;20320;-80
2024/04/15 03:29:28;;;;;;;3.28;1.67;;;13.50;54.70;15.20;101040.00;;;;5423725;26;20237;-77
2024/04/15 03:31:56;;;;;;;7.75;1.95;;;13.50;54.70;15.20;101041.00;;;;5454284;26;20305;-79
2024/04/15 03:34:22;;;;;;;2.88;1.50;;;13.50;54.80;15.20;101033.00;;;;5435542;26;20860;-78
2024/04/15 03:36:51;;;;;;;6.70;1.58;;;13.50;54.90;15.20;101022.00;;;;5453570;26;20756;-80
2024/04/15 03:39:20;;;;;;;3.50;1.63;;;13.50;54.90;15.20;101019.00;;;;5451911;26;20224;-78
2024/04/15 03:41:51;;;;;;;6.20;1.77;;;13.50;55.00;15.20;101006.00;;;;5452199;26;20392;-80
2024/04/15 03:44:20;;;;;;;4.47;1.73;;;13.50;55.00;15.20;100992.00;;;;5452075;26;20224;-80
2024/04/15 03:46:46;;;;;;;6.80;1.80;;;13.50;55.10;15.20;100992.00;;;;5453151;26;20292;-80
2024/04/15 03:49:15;;;;;;;7.28;2.20;;;13.50;55.20;15.20;100989.00;;;;5452627;26;20336;-80
2024/04/15 03:51:41;;;;;;;4.97;1.50;;;13.50;55.20;15.20;100992.00;;;;5453236;26;20228;-81
2024/04/15 03:54:09;;;;;;;3.95;1.63;;;13.50;55.20;15.20;100987.00;;;;5452433;26;20236;-80
2024/04/15 03:56:35;;;;;;;6.07;2.38;;;13.50;55.30;15.20;100984.00;;;;5451258;26;20303;-80
2024/04/15 03:59:07;;;;;;;4.47;1.73;;;13.50;55.40;15.20;100975.00;;;;5439085;26;20248;-77
2024/04/15 04:01:33;;;;;;;3.38;1.55;;;13.50;55.50;15.20;100976.00;;;;5450340;26;20252;-79
2024/04/15 04:04:01;;;;;;;6.78;1.80;;;13.50;55.40;15.20;100969.00;;;;5451129;26;20243;-80
2024/04/15 04:06:28;;;;;;;6.13;1.85;;;13.50;55.50;15.20;100971.00;;;;5438440;26;20749;-78
2024/04/15 04:08:57;;;;;;;5.05;1.80;;;13.50;55.60;15.20;100974.00;;;;5452696;26;20224;-79
2024/04/15 04:11:23;;;;;;;3.30;1.50;;;13.50;55.70;15.20;100963.00;;;;5451986;26;20919;-80
2024/04/15 04:13:51;;;;;;;3.78;1.60;;;13.50;55.60;15.30;100962.00;;;;5453242;26;20270;-77
2024/04/15 04:16:21;;;;;;;8.13;2.13;;;13.50;55.70;15.20;100944.00;;;;5451555;26;20236;-80
2024/04/15 04:18:49;;;;;;;5.40;2.20;;;13.60;55.90;15.30;100941.00;;;;5453425;26;20548;-77
2024/04/15 04:21:16;;;;;;;5.35;2.20;;;13.60;55.80;15.30;100939.00;;;;5453195;26;20267;-79
2024/04/15 04:23:44;;;;;;;5.07;1.95;;;13.60;55.90;15.30;100946.00;;;;5444359;26;20270;-80
2024/04/15 04:26:10;;;;;;;4.70;1.80;;;13.60;55.90;15.40;100938.00;;;;5452360;26;20266;-81
2024/04/15 04:28:39;;;;;;;6.50;1.75;;;13.60;56.00;15.40;100939.00;;;;5448490;26;20270;-80
2024/04/15 04:31:05;;;;;;;7.72;2.70;;;13.60;56.00;15.40;100936.00;;;;5450184;26;20228;-80
2024/04/15 04:33:36;;;;;;;6.93;2.25;;;13.60;56.00;15.30;100923.00;;;;5451900;26;20232;-77
2024/04/15 04:36:04;;;;;;;4.63;1.85;;;13.60;56.10;15.40;100922.00;;;;5451825;26;20232;-79
2024/04/15 04:38:33;;;;;;;7.38;1.80;;;13.60;56.00;15.40;100923.00;;;;5452457;26;20848;-79
2024/04/15 04:40:59;;;;;;;5.13;2.17;;;13.60;56.00;15.40;100916.00;;;;5452649;26;20281;-80
2024/04/15 04:43:28;;;;;;;7.53;2.22;;;13.60;55.90;15.30;100909.00;;;;5452327;26;20241;-80
2024/04/15 04:45:54;;;;;;;4.72;1.92;;;13.60;56.00;15.30;100914.00;;;;5452871;26;20231;-80
2024/04/15 04:48:23;;;;;;;5.38;1.73;;;13.60;56.00;15.30;100918.00;;;;5449259;26;20655;-80
2024/04/15 04:50:52;;;;;;;8.48;2.47;;;13.60;56.00;15.20;100926.00;;;;5467791;26;20287;-80
2024/04/15 04:53:20;;;;;;;7.55;2.67;;;13.60;56.10;15.30;100919.00;;;;5452992;26;20700;-80
2024/04/15 04:55:47;;;;;;;3.10;1.70;;;13.60;56.10;15.20;100919.00;;;;5452404;26;20669;-80
2024/04/15 04:58:15;;;;;;;5.93;2.00;;;13.60;56.20;15.20;100918.00;;;;5452399;26;20624;-79
2024/04/15 05:00:41;;;;;;;4.18;1.65;;;13.50;56.20;15.20;100910.00;;;;5442804;26;20292;-79
2024/04/15 05:03:10;;;;;;;4.47;2.30;;;13.50;56.30;15.20;100907.00;;;;5453550;26;20228;-79
2024/04/15 05:05:36;;;;;;;6.82;2.20;;;13.50;56.30;15.20;100903.00;;;;5451942;26;20685;-80
2024/04/15 05:08:08;;;;;;;8.35;2.40;;;13.50;56.50;15.20;100892.00;;;;5450105;26;20236;-80
2024/04/15 05:10:36;;;;;;;3.38;1.80;;;13.50;56.60;15.20;100902.00;;;;5447538;26;20227;-79
2024/04/15 05:13:05;;;;;;;7.35;1.85;;;13.50;56.60;15.20;100893.00;;;;5451714;26;20274;-80
2024/04/15 05:15:31;;;;;;;5.13;1.80;;;13.50;56.60;15.20;100893.00;;;;5452110;26;20353;-78
2024/04/15 05:18:00;;;;;;;4.15;2.13;;;13.50;56.60;15.20;100888.00;;;;5443231;26;20733;-79
2024/04/15 05:20:26;;;;;;;7.95;2.10;;;13.50;56.70;15.20;100885.00;;;;5452656;26;20269;-79
2024/04/15 05:22:55;;;;;;;7.45;1.83;;;13.50;56.70;15.20;100892.00;;;;5450436;26;20263;-76
2024/04/15 05:25:23;;;;;;;7.18;1.75;;;13.50;56.80;15.20;100872.00;;;;5434629;26;20241;-78
2024/04/15 05:27:52;;;;;;;7.38;2.10;;;13.50;56.90;15.20;100867.00;;;;5444553;26;20240;-76
2024/04/15 05:30:18;;;;;;;5.00;1.90;;;13.50;56.90;15.20;100863.00;;;;5430455;26;20322;-80
2024/04/15 05:32:47;;;;;;;5.45;2.15;;;13.50;56.90;15.20;100869.00;;;;5446828;26;20282;-79
2024/04/15 05:35:13;;;;;;;4.97;1.67;;;13.50;57.00;15.20;100867.00;;;;5448860;26;20243;-78
2024/04/15 05:42:01;;;;;;;7.07;1.83;;;13.50;57.50;15.00;100865.00;;;;5403480;26;20257;-79
2024/04/15 05:44:27;;;;;;;5.80;1.88;;;13.50;57.30;15.10;100856.00;;;;5451804;26;20228;-77
2024/04/15 05:46:56;;;;;;;7.55;2.33;;;13.50;56.80;15.10;100860.00;;;;5452172;26;20262;-76
2024/04/15 05:49:22;;;;;;;5.22;1.65;;;13.50;56.90;15.10;100859.00;;;;5439651;26;20232;-79
2024/04/15 05:51:50;;;;;;;4.38;2.13;;;13.40;56.90;15.10;100853.00;;;;5416460;26;20225;-78
2024/04/15 05:54:17;;;;;;;5.55;2.22;;;13.40;57.00;15.10;100850.00;;;;5415456;26;20256;-77
2024/04/15 05:56:45;;;;;;;6.78;2.40;;;13.40;56.90;15.00;100853.00;;;;5445321;26;20287;-79
2024/04/15 05:59:14;;;;;;;8.85;2.30;;;13.40;57.10;15.00;100839.00;;;;5450583;26;20236;-85
2024/04/15 06:01:42;;;;;;;6.55;1.83;;;13.40;57.20;15.10;100853.00;;;;5451021;26;20752;-74
2024/04/15 06:04:09;;;;;;;4.35;1.85;;;13.40;57.10;15.10;100849.00;;;;5451027;26;20225;-79
2024/04/15 06:06:37;;;;;;;4.65;1.58;;;13.40;57.20;15.10;100849.00;;;;5446425;26;20258;-79
2024/04/15 06:09:03;;;;;;;6.47;2.10;;;13.40;57.20;15.10;100843.00;;;;5449803;26;20256;-77
2024/04/15 06:11:32;;;;;;;3.67;1.83;;;13.40;57.30;15.10;100846.00;;;;5450066;26;20554;-79
2024/04/15 06:13:58;;;;;;;4.15;1.40;;;13.40;57.30;15.20;100843.00;;;;5448782;26;20224;-78
2024/04/15 06:16:29;;;;;;;8.82;2.20;;;13.40;57.50;15.20;100830.00;;;;5449868;26;20274;-81
2024/04/15 06:18:55;;;;;;;3.17;1.30;;;13.50;57.60;15.30;100826.00;;;;5449525;26;20255;-72
2024/04/15 06:21:26;;;;;;;6.28;1.77;;;13.50;57.60;15.30;100817.00;;;;5443292;26;20289;-81
2024/04/15 06:23:52;;;;;;;4.32;1.67;;;13.60;57.60;15.40;100815.00;;;;5450719;26;20267;-79
2024/04/15 06:26:20;;;;;;;4.40;1.27;;;13.60;57.60;15.40;100813.00;;;;5448710;26;20286;-78
2024/04/15 06:28:46;;;;;;;3.00;1.30;;;13.70;57.70;15.50;100810.00;;;;5436571;26;20328;-79
2024/04/15 06:31:15;;;;;;;4.80;1.50;;;13.70;57.70;15.50;100806.00;;;;5450536;26;20221;-79
2024/04/15 06:33:44;;;;;;;7.43;1.67;;;13.80;57.70;15.50;100795.00;;;;5450753;26;20267;-79
2024/04/15 06:36:12;;;;;;;5.13;1.65;;;13.80;57.60;15.60;100794.00;;;;5451684;26;20308;-83
2024/04/15 06:38:38;;;;;;;3.67;1.40;;;13.90;57.60;15.60;100793.00;;;;5451781;26;20307;-76
2024/04/15 06:41:07;;;;;;;6.57;1.55;;;13.90;57.50;15.70;100788.00;;;;5435047;26;20617;-79
2024/04/15 06:43:33;;;;;;;5.82;1.60;;;14.00;57.50;15.80;100785.00;;;;5450661;26;20267;-78
2024/04/15 06:46:02;;;;;;;4.78;1.95;;;14.00;57.40;15.80;100772.00;;;;5451305;26;20262;-79
2024/04/15 06:48:28;;;;;;;5.00;1.45;;;14.10;57.50;15.90;100766.00;;;;5450092;26;20236;-81
2024/04/15 06:50:59;;;;;;;5.35;1.67;;;14.20;57.50;15.90;100764.00;;;;5450921;26;20279;-80
2024/04/15 06:53:25;;;;;;;3.22;1.30;;;14.20;57.40;16.00;100761.00;;;;5451595;26;20324;-78
2024/04/15 06:55:54;;;;;;;6.50;1.50;;;14.30;57.30;16.10;100754.00;;;;5450689;26;20701;-78
2024/04/15 06:58:20;;;;;;;4.00;1.50;;;14.40;57.20;16.20;100753.00;;;;5448030;26;20244;-75
2024/04/15 07:00:49;;;;;;;4.93;1.10;;;14.40;57.00;16.30;100749.00;;;;5450876;26;20276;-77
2024/04/15 07:03:15;;;;;;;5.80;1.83;;;14.50;56.90;16.40;100740.00;;;;5450117;26;20236;-80
2024/04/15 07:05:43;;;;;;;2.88;1.25;;;14.60;56.90;16.50;100740.00;;;;5450430;26;20290;-79
2024/04/15 07:08:12;;;;;;;4.32;1.63;;;14.70;56.90;16.50;100731.00;;;;5449695;26;20263;-82
2024/04/15 07:10:41;;;;;;;6.03;1.77;;;14.80;57.00;16.60;100723.00;;;;5451570;26;20271;-86
2024/04/15 07:13:08;;;;;;;5.60;1.85;;;14.90;56.90;16.70;100714.00;;;;5451047;26;20212;-82
2024/04/15 07:15:37;;;;;;;5.03;1.50;;;14.90;56.80;16.70;100720.00;;;;5451367;26;20263;-79
2024/04/15 07:18:03;;;;;;;9.60;1.60;;;15.00;56.50;16.80;100717.00;;;;5450310;26;20231;-79
2024/04/15 07:20:32;;;;;;;5.63;1.13;;;15.10;56.20;16.80;100715.00;;;;5449269;26;20236;-80
2024/04/15 07:22:58;;;;;;;5.25;1.30;;;15.10;56.00;16.90;100713.00;;;;5446522;26;20283;-81
2024/04/15 07:25:30;;;;;;;5.32;1.50;;;15.20;55.90;16.90;100703.00;;;;5450667;26;20258;-81
2024/04/15 07:27:56;;;;;;;5.45;1.63;;;15.20;55.80;16.90;100692.00;;;;5451004;26;20229;-79
2024/04/15 07:30:25;;;;;;;3.20;1.05;;;15.30;55.70;17.00;100684.00;;;;5450440;26;20551;-77
2024/04/15 07:32:51;;;;;;;11.50;1.52;;;15.30;55.50;17.00;100686.00;;;;5450291;26;20224;-80
2024/04/15 07:35:21;;;;;;;6.18;1.58;;;15.30;55.50;17.00;100681.00;;;;5449093;26;20232;-80
2024/04/15 07:37:47;;;;;;;3.88;1.45;;;15.40;55.50;17.10;100674.00;;;;5449777;26;20276;-85
2024/04/15 07:40:16;;;;;;;4.32;1.52;;;15.40;55.50;17.10;100671.00;;;;5434421;26;20287;-82
2024/04/15 07:42:44;;;;;;;3.45;1.27;;;15.40;55.40;17.10;100666.00;;;;5414177;26;20236;-81
2024/04/15 07:45:13;;;;;;;2.42;1.00;;;15.40;55.40;17.20;100663.00;;;;5413550;26;20714;-80
2024/04/15 07:47:39;;;;;;;2.13;0.98;;;15.50;55.40;17.20;100662.00;;;;5414439;26;20326;-76
2024/04/15 07:50:09;;;;;;;4.50;1.65;;;15.60;55.40;17.30;100648.00;;;;5449210;26;20224;-79
2024/04/15 07:52:38;;;;;;;4.43;1.98;;;15.60;55.30;17.30;100649.00;;;;5449979;26;20308;-82
2024/04/15 07:55:05;;;;;;;7.68;1.85;;;15.60;55.10;17.30;100644.00;;;;5449232;26;20224;-82
2024/04/15 07:57:34;;;;;;;5.80;1.90;;;15.70;55.10;17.30;100633.00;;;;5450108;26;20216;-77
2024/04/15 08:00:06;;;;;;;5.13;2.30;;;15.70;55.00;17.30;100631.00;;;;5450041;26;20332;-80
2024/04/15 08:02:35;;;;;;;7.10;2.13;;;15.70;55.00;17.40;100635.00;;;;5452165;26;20224;-78
2024/04/15 08:05:03;;;;;;;5.10;1.80;;;15.70;54.90;17.40;100614.00;;;;5453010;26;20262;-77
2024/04/15 08:07:31;;;;;;;4.10;2.10;;;15.80;55.00;17.40;100618.00;;;;5453061;26;20224;-76
2024/04/15 08:09:58;;;;;;;6.10;2.30;;;15.80;55.00;17.40;100614.00;;;;5453255;26;20228;-80
2024/04/15 08:12:27;;;;;;;8.10;2.47;;;15.80;54.80;17.40;100604.00;;;;5452430;26;20325;-82
2024/04/15 08:14:53;;;;;;;3.30;1.92;;;15.80;54.70;17.50;100600.00;;;;5453395;26;20535;-78
2024/04/15 08:17:25;;;;;;;6.93;2.15;;;15.80;55.20;17.40;100594.00;;;;5451778;26;20680;-85
2024/04/15 08:19:52;;;;;;;3.50;2.25;;;15.80;54.50;17.40;100588.00;;;;5452585;26;20655;-80
2024/04/15 08:22:22;;;;;;;7.80;2.40;;;15.80;54.40;17.40;100597.00;;;;5449435;26;20232;-80
2024/04/15 08:24:48;;;;;;;7.07;2.47;;;15.80;54.30;17.40;100570.00;;;;5451059;26;20224;-77
2024/04/15 08:27:17;;;;;;;2.60;1.75;;;15.80;54.20;17.40;100560.00;;;;5451271;26;20319;-83
2024/04/15 08:29:43;;;;;;;4.30;1.95;;;15.80;54.20;17.40;100543.00;;;;5449338;26;20718;-78
2024/04/15 08:32:12;;;;;;;5.70;1.90;;;15.80;54.80;17.40;100539.00;;;;5453069;26;20324;-81
2024/04/15 08:34:40;;;;;;;10.50;3.10;;;15.80;54.20;17.40;100542.00;;;;5452635;26;20232;-80
2024/04/15 08:37:09;;;;;;;4.72;1.90;;;15.80;54.30;17.40;100548.00;;;;5453618;26;20232;-80
2024/04/15 08:39:37;;;;;;;6.72;1.88;;;15.80;54.30;17.50;100541.00;;;;5453182;26;20228;-78
2024/04/15 08:42:18;;;;;;;8.07;2.58;;;15.80;54.20;17.50;100534.00;;;;5452632;26;20259;-79
2024/04/15 08:44:44;;;;;;;6.78;1.98;;;15.80;54.30;17.60;100518.00;;;;5452735;26;20215;-82
2024/04/15 08:47:25;;;;;;;12.18;2.40;;;15.90;54.20;17.50;100503.00;;;;5452120;26;20745;-79
2024/04/15 08:49:53;;;;;;;6.10;2.03;;;15.90;54.00;17.60;100505.00;;;;5453041;26;20244;-82
2024/04/15 08:52:22;;;;;;;5.97;1.98;;;16.00;53.90;17.60;100493.00;;;;5453383;26;20316;-81
2024/04/15 08:54:49;;;;;;;4.93;1.60;;;16.00;53.60;17.60;100484.00;;;;5453087;26;20262;-80
2024/04/15 08:57:20;;;;;;;4.85;2.40;;;16.00;53.60;17.60;100480.00;;;;5453069;26;20262;-89
2024/04/15 08:59:46;;;;;;;6.70;2.40;;;16.00;53.60;17.70;100471.00;;;;5452652;26;20216;-78
2024/04/15 09:02:17;;;;;;;2.03;1.77;;;16.10;53.60;17.70;100462.00;;;;5451291;26;20228;-81
2024/04/15 09:04:44;;;;;;;5.05;2.20;;;16.10;53.50;17.80;100444.00;;;;5452491;26;20243;-81
2024/04/15 09:07:15;;;;;;;5.10;2.00;;;16.10;53.50;17.70;100447.00;;;;5452884;26;20225;-80
2024/04/15 09:09:41;;;;;;;6.22;2.08;;;16.10;53.30;17.80;100455.00;;;;5452351;26;20217;-82
2024/04/15 09:12:10;;;;;;;5.00;2.35;;;16.20;53.30;17.90;100446.00;;;;5451665;26;20301;-80
2024/04/15 09:14:37;;;;;;;5.95;2.50;;;16.20;53.40;17.90;100439.00;;;;5450306;26;20228;-81
2024/04/15 09:17:06;;;;;;;3.53;1.73;;;16.30;53.40;17.90;100426.00;;;;5452937;26;20224;-83
2024/04/15 09:19:32;;;;;;;3.80;1.80;;;16.30;53.30;18.00;100415.00;;;;5452777;26;20235;-83
2024/04/15 09:22:02;;;;;;;3.97;2.15;;;16.30;53.30;18.00;100419.00;;;;5453262;26;20231;-77
2024/04/15 09:24:31;;;;;;;4.68;1.85;;;16.40;53.30;18.00;100417.00;;;;5448472;26;20594;-81
2024/04/15 09:27:00;;;;;;;5.03;1.90;;;16.40;53.30;18.10;100406.00;;;;5452471;26;20232;-80
2024/04/15 09:29:26;;;;;;;5.10;2.00;;;16.50;53.30;18.20;100396.00;;;;5440003;26;20241;-83
2024/04/15 09:31:54;;;;;;;3.92;2.05;;;16.50;53.20;18.20;100387.00;;;;5416915;26;20225;-77
2024/04/15 09:34:21;;;;;;;2.60;1.83;;;16.50;52.90;18.20;100381.00;;;;5416619;26;20649;-81
2024/04/15 09:36:52;;;;;;;5.55;1.55;;;16.50;52.60;18.10;100375.00;;;;5437868;26;20345;-82
2024/04/15 09:39:20;;;;;;;2.67;1.65;;;16.60;52.60;18.10;100362.00;;;;5452190;26;20220;-83
2024/04/15 09:41:54;;;;;;;3.90;1.33;;;16.60;52.30;18.10;100351.00;;;;5437513;26;20341;-82
2024/04/15 09:44:22;;;;;;;4.22;1.73;;;16.60;52.30;18.10;100335.00;;;;5447316;26;20244;-81
2024/04/15 09:46:52;;;;;;;4.63;1.85;;;16.60;52.50;18.10;100332.00;;;;5452444;26;20224;-83
2024/04/15 09:49:21;;;;;;;4.68;1.73;;;16.60;52.30;18.10;100316.00;;;;5451746;26;20838;-80
2024/04/15 09:51:54;;;;;;;8.93;1.80;;;16.60;52.30;18.10;100319.00;;;;5415893;26;20217;-80
2024/04/15 09:54:32;;;;;;;2.33;1.67;;;16.60;52.30;18.10;100306.00;;;;5444982;26;20212;-83
2024/04/15 09:57:15;;;;;;;4.03;2.15;;;16.60;52.30;18.10;100299.00;;;;5449893;26;20705;-83
2024/04/15 09:59:45;;;;;;;2.47;1.55;;;16.60;52.20;18.10;100292.00;;;;5417978;26;20244;-82
2024/04/15 10:02:29;;;;;;;2.28;1.60;;;16.60;52.30;18.00;100309.00;;;;5418819;26;20225;-81
2024/04/15 10:05:02;;;;;;;7.10;1.55;;;16.60;52.10;18.10;100292.00;;;;5451869;26;20306;-81
2024/04/15 10:07:32;;;;;;;5.25;1.67;;;16.60;51.90;18.10;100282.00;;;;5451596;26;20224;-80
2024/04/15 10:10:00;;;;;;;3.63;1.15;;;16.60;52.00;18.00;100274.00;;;;5451753;26;20271;-80
2024/04/15 10:12:32;;;;;;;4.07;1.23;;;16.50;52.30;17.90;100268.00;;;;5450108;26;20224;-81
2024/04/15 10:15:00;;;;;;;5.22;1.30;;;16.40;52.60;17.80;100260.00;;;;5451959;26;20232;-79
2024/04/15 10:17:29;;;;;;;2.00;1.30;;;16.40;53.00;17.80;100248.00;;;;5449896;26;20220;-82
2024/04/15 10:19:55;;;;;;;1.83;1.38;;;16.30;53.20;17.70;100243.00;;;;5432206;26;20317;-85
2024/04/15 10:22:25;;;;;;;5.30;1.35;;;16.30;53.40;17.70;100228.00;;;;5450912;26;20224;-77
2024/04/15 10:24:51;;;;;;;4.10;1.60;;;16.20;53.40;17.70;100228.00;;;;5448711;26;20672;-77
2024/04/15 10:27:21;;;;;;;5.57;1.42;;;16.10;53.50;17.70;100208.00;;;;5450554;26;20297;-77
2024/04/15 10:29:50;;;;;;;3.05;1.38;;;16.10;53.50;17.60;100207.00;;;;5450149;26;20324;-83
2024/04/15 10:32:19;;;;;;;2.35;1.27;;;16.10;53.70;17.70;100208.00;;;;5447467;26;20239;-77
2024/04/15 10:34:48;;;;;;;7.15;1.20;;;16.00;53.70;17.60;100204.00;;;;5445848;26;20251;-80
2024/04/15 10:37:17;;;;;;;5.25;1.65;;;16.00;53.70;17.60;100194.00;;;;5450667;26;20781;-79
2024/04/15 10:39:45;;;;;;;2.67;1.30;;;16.00;53.90;17.50;100186.00;;;;5451330;26;20255;-78
2024/04/15 10:42:14;;;;;;;3.67;1.55;;;15.90;54.20;17.50;100193.00;;;;5451008;26;20240;-80
2024/04/15 10:44:40;;;;;;;4.90;1.15;;;15.90;54.30;17.50;100183.00;;;;5450871;26;20737;-81
2024/04/15 10:47:11;;;;;;;3.22;1.25;;;15.90;54.50;17.40;100185.00;;;;5450498;26;20262;-80
2024/04/15 10:49:37;;;;;;;3.40;1.25;;;15.80;54.70;17.40;100169.00;;;;5450997;26;20284;-82
2024/04/15 10:52:06;;;;;;;6.38;1.30;;;15.80;54.90;17.30;100173.00;;;;5451374;26;20323;-79
2024/04/15 10:54:32;;;;;;;3.58;1.40;;;15.70;54.90;17.30;100161.00;;;;5451504;26;20216;-80
2024/04/15 10:57:02;;;;;;;3.88;1.75;;;15.70;55.30;17.20;100152.00;;;;5451772;26;21080;-80